createdAt,value
2019-06-20T00:00:58.324Z,100809.48
2019-06-20T00:03:30.651Z,100812.12
2019-06-20T00:06:02.899Z,100816.94
2019-06-20T00:08:35.124Z,100810.78
2019-06-20T00:11:07.403Z,100813.44
2019-06-20T00:13:39.607Z,100805.98
2019-06-20T00:16:11.813Z,100805.97
2019-06-20T00:18:44.151Z,100802.91
2019-06-20T00:21:16.375Z,100803.76
2019-06-20T00:23:48.589Z,100798.95
2019-06-20T00:26:20.870Z,100799.83
2019-06-20T00:28:54.205Z,100809.92
2019-06-20T00:31:26.425Z,100816.07
2019-06-20T00:33:58.641Z,100810.78
2019-06-20T00:36:30.890Z,100822.23
2019-06-20T00:39:03.088Z,100823.97
2019-06-20T00:41:36.979Z,100824.84
2019-06-20T00:44:09.203Z,100827.94
2019-06-20T00:46:41.478Z,100828.81
2019-06-20T00:49:14.818Z,100831.00
2019-06-20T00:51:47.043Z,100828.80
2019-06-20T00:54:19.272Z,100830.56
2019-06-20T00:56:51.543Z,100825.29
2019-06-20T00:59:23.748Z,100828.80
2019-06-20T01:01:57.106Z,100832.77
2019-06-20T01:04:29.370Z,100822.67
2019-06-20T01:07:01.615Z,100816.94
2019-06-20T01:09:33.887Z,100803.78
2019-06-20T01:12:06.078Z,100805.52
2019-06-20T01:14:38.312Z,100804.23
2019-06-20T01:17:11.541Z,100805.52
2019-06-20T01:19:43.843Z,100807.28
2019-06-20T01:22:16.053Z,100808.59
2019-06-20T01:24:48.366Z,100810.80
2019-06-20T01:27:20.582Z,100813.42
2019-06-20T01:29:52.790Z,100812.56
2019-06-20T01:32:25.085Z,100812.12
2019-06-20T01:34:57.383Z,100813.86
2019-06-20T01:37:29.624Z,100813.88
2019-06-20T01:40:01.930Z,100814.30
2019-06-20T01:42:34.269Z,100817.39
2019-06-20T01:45:06.499Z,100818.27
2019-06-20T01:47:38.712Z,100817.80
2019-06-20T01:50:10.986Z,100815.59
2019-06-20T01:52:43.225Z,100825.70
2019-06-20T01:55:15.454Z,100824.37
2019-06-20T01:57:47.737Z,100822.18
2019-06-20T02:00:19.941Z,100832.73
2019-06-20T02:02:52.182Z,100824.41
2019-06-20T02:05:24.418Z,100827.47
2019-06-20T02:07:56.745Z,100831.88
2019-06-20T02:10:29.073Z,100823.08
2019-06-20T02:13:01.326Z,100831.44
2019-06-20T02:15:33.554Z,100834.05
2019-06-20T02:18:05.822Z,100834.06
2019-06-20T02:20:38.013Z,100838.44
2019-06-20T02:23:10.213Z,100839.34
2019-06-20T02:25:42.487Z,100836.28
2019-06-20T02:28:14.742Z,100838.03
2019-06-20T02:30:46.936Z,100843.32
2019-06-20T02:33:19.197Z,100845.95
2019-06-20T02:35:51.512Z,100838.04
2019-06-20T02:38:23.688Z,100842.89
2019-06-20T02:40:55.951Z,100846.84
2019-06-20T02:43:28.146Z,100845.95
2019-06-20T02:46:00.406Z,100849.02
2019-06-20T02:48:32.620Z,100850.77
2019-06-20T02:51:04.841Z,100851.66
2019-06-20T02:53:37.098Z,100849.89
2019-06-20T02:56:09.353Z,100851.22
2019-06-20T02:58:41.605Z,100846.83
2019-06-20T03:01:13.839Z,100853.89
2019-06-20T03:03:46.077Z,100852.57
2019-06-20T03:06:19.022Z,100855.20
2019-06-20T03:08:51.267Z,100854.73
2019-06-20T03:11:23.535Z,100855.63
2019-06-20T03:13:55.807Z,100854.77
2019-06-20T03:16:28.134Z,100853.44
2019-06-20T03:19:00.347Z,100858.28
2019-06-20T03:21:32.558Z,100869.25
2019-06-20T03:24:04.844Z,100872.80
2019-06-20T03:26:37.080Z,100871.45
2019-06-20T03:29:09.361Z,100876.74
2019-06-20T03:31:41.623Z,100872.80
2019-06-20T03:34:13.893Z,100873.65
2019-06-20T03:36:46.183Z,100869.72
2019-06-20T03:39:18.443Z,100874.09
2019-06-20T03:41:50.712Z,100872.31
2019-06-20T03:44:23.012Z,100883.31
2019-06-20T03:46:55.227Z,100877.14
2019-06-20T03:49:27.494Z,100874.08
2019-06-20T03:51:59.767Z,100877.59
2019-06-20T03:54:33.011Z,100881.54
2019-06-20T03:57:05.257Z,100877.59
2019-06-20T03:59:38.565Z,100875.85
2019-06-20T04:02:10.817Z,100880.26
2019-06-20T04:04:43.079Z,100876.30
2019-06-20T04:07:15.335Z,100873.23
2019-06-20T04:09:47.557Z,100880.26
2019-06-20T04:12:19.854Z,100883.32
2019-06-20T04:14:52.078Z,100885.95
2019-06-20T04:17:24.298Z,100882.00
2019-06-20T04:19:56.606Z,100882.45
2019-06-20T04:22:28.820Z,100878.94
2019-06-20T04:25:01.412Z,100875.88
2019-06-20T04:27:33.616Z,100882.02
2019-06-20T04:30:05.949Z,100880.69
2019-06-20T04:32:38.149Z,100877.59
2019-06-20T04:35:10.364Z,100880.23
2019-06-20T04:37:43.691Z,100882.88
2019-06-20T04:40:15.933Z,100885.94
2019-06-20T04:42:48.236Z,100889.88
2019-06-20T04:45:34.205Z,100889.00
2019-06-20T04:47:54.419Z,100894.28
2019-06-20T04:50:26.918Z,100896.89
2019-06-20T04:52:59.152Z,100892.06
2019-06-20T04:55:31.446Z,100899.13
2019-06-20T04:58:03.691Z,100899.09
2019-06-20T05:00:35.910Z,100905.23
2019-06-20T05:03:08.199Z,100900.84
2019-06-20T05:05:40.423Z,100904.35
2019-06-20T05:08:12.702Z,100904.77
2019-06-20T05:10:44.925Z,100910.48
2019-06-20T05:13:17.184Z,100903.43
2019-06-20T05:15:52.943Z,100909.19
2019-06-20T05:18:24.322Z,100916.20
2019-06-20T05:20:57.157Z,100916.67
2019-06-20T05:23:30.363Z,100910.48
2019-06-20T05:26:02.626Z,100914.91
2019-06-20T05:28:34.880Z,100917.53
2019-06-20T05:31:07.100Z,100918.84
2019-06-20T05:33:39.372Z,100919.23
2019-06-20T05:36:11.665Z,100918.76
2019-06-20T05:38:43.891Z,100917.84
2019-06-20T05:41:16.194Z,100910.75
2019-06-20T05:43:48.447Z,100921.66
2019-06-20T05:46:20.766Z,100915.09
2019-06-20T05:48:53.004Z,100919.52
2019-06-20T05:51:25.351Z,100915.89
2019-06-20T05:53:57.559Z,100918.41
2019-06-20T05:56:29.942Z,100921.26
2019-06-20T05:59:02.037Z,100926.96
2019-06-20T06:01:34.299Z,100926.11
2019-06-20T06:04:06.507Z,100925.22
2019-06-20T06:06:38.768Z,100927.84
2019-06-20T06:09:10.985Z,100927.81
2019-06-20T06:11:43.228Z,100923.81
2019-06-20T06:14:15.565Z,100923.34
2019-06-20T06:16:47.807Z,100926.30
2019-06-20T06:19:20.007Z,100930.10
2019-06-20T06:21:52.263Z,100924.33
2019-06-20T06:24:24.465Z,100929.22
2019-06-20T06:26:59.709Z,100924.98
2019-06-20T06:29:30.652Z,100934.93
2019-06-20T06:32:02.848Z,100931.27
2019-06-20T06:34:35.078Z,100931.48
2019-06-20T06:37:07.349Z,100929.62
2019-06-20T06:39:43.276Z,100934.03
2019-06-20T06:42:15.758Z,100932.20
2019-06-20T06:44:47.980Z,100940.88
2019-06-20T06:47:20.276Z,100940.03
2019-06-20T06:49:52.539Z,100947.20
2019-06-20T06:52:24.731Z,100949.55
2019-06-20T06:54:56.961Z,100956.34
2019-06-20T06:57:29.190Z,100963.86
2019-06-20T07:00:01.411Z,100962.98
2019-06-20T07:02:34.844Z,100967.81
2019-06-20T07:05:07.084Z,100957.53
2019-06-20T07:07:39.311Z,100968.66
2019-06-20T07:10:11.693Z,100966.16
2019-06-20T07:12:46.205Z,100977.55
2019-06-20T07:15:18.700Z,100978.88
2019-06-20T07:17:50.888Z,100978.02
2019-06-20T07:20:23.367Z,100986.86
2019-06-20T07:22:55.695Z,100996.77
2019-06-20T07:25:27.722Z,101000.88
2019-06-20T07:27:59.967Z,101007.45
2019-06-20T07:30:32.246Z,101005.73
2019-06-20T07:33:04.759Z,100997.84
2019-06-20T07:35:37.010Z,101003.11
2019-06-20T07:38:09.256Z,101003.53
2019-06-20T07:40:41.526Z,101005.26
2019-06-20T07:43:13.885Z,101013.19
2019-06-20T07:46:01.415Z,101012.34
2019-06-20T07:48:20.015Z,101008.84
2019-06-20T07:50:52.222Z,101016.74
2019-06-20T07:53:24.460Z,101008.34
2019-06-20T07:55:56.744Z,101005.26
2019-06-20T07:58:28.955Z,101005.56
2019-06-20T08:01:01.253Z,101001.42
2019-06-20T08:03:33.493Z,101001.22
2019-06-20T08:06:05.719Z,101004.22
2019-06-20T08:08:38.124Z,101014.27
2019-06-20T08:11:10.316Z,101015.59
2019-06-20T08:13:42.542Z,101015.60
2019-06-20T08:16:14.850Z,101023.55
2019-06-20T08:18:47.066Z,101015.25
2019-06-20T08:21:19.266Z,101016.13
2019-06-20T08:23:51.538Z,101020.67
2019-06-20T08:26:24.783Z,101030.51
2019-06-20T08:29:10.397Z,101044.27
2019-06-20T08:31:31.005Z,101036.86
2019-06-20T08:34:04.403Z,101030.70
2019-06-20T08:36:36.736Z,101033.84
2019-06-20T08:39:09.024Z,101040.31
2019-06-20T08:41:41.285Z,101045.44
2019-06-20T08:44:13.601Z,101051.20
2019-06-20T08:46:45.835Z,101053.45
2019-06-20T08:49:18.054Z,101051.31
2019-06-20T08:51:50.303Z,101052.29
2019-06-20T08:54:22.509Z,101053.15
2019-06-20T08:56:56.109Z,101056.70
2019-06-20T08:59:28.718Z,101052.68
2019-06-20T09:04:34.871Z,101048.62
2019-06-20T09:07:07.152Z,101056.09
2019-06-20T09:09:39.324Z,101053.94
2019-06-20T09:12:11.525Z,101056.59
2019-06-20T09:14:43.787Z,101058.28
2019-06-20T09:17:16.008Z,101061.79
2019-06-20T09:19:48.250Z,101064.88
2019-06-20T09:22:20.519Z,101067.14
2019-06-20T09:24:53.663Z,101077.30
2019-06-20T09:27:27.097Z,101073.30
2019-06-20T09:30:00.407Z,101075.95
2019-06-20T09:32:32.729Z,101070.59
2019-06-20T09:35:04.924Z,101071.86
2019-06-20T09:37:37.124Z,101069.90
2019-06-20T09:40:09.375Z,101070.45
2019-06-20T09:42:41.638Z,101074.39
2019-06-20T09:45:13.854Z,101070.67
2019-06-20T09:47:46.136Z,101076.53
2019-06-20T09:50:18.387Z,101072.63
2019-06-20T09:52:51.648Z,101072.73
2019-06-20T09:55:24.728Z,101076.38
2019-06-20T09:57:58.181Z,101084.30
2019-06-20T10:00:30.583Z,101088.95
2019-06-20T10:03:02.836Z,101083.64
2019-06-20T10:05:35.081Z,101086.91
2019-06-20T10:08:07.315Z,101086.89
2019-06-20T10:10:39.578Z,101088.50
2019-06-20T10:13:11.818Z,101087.39
2019-06-20T10:15:44.938Z,101091.91
2019-06-20T10:18:18.037Z,101090.89
2019-06-20T10:20:51.124Z,101086.65
2019-06-20T10:23:23.463Z,101091.44
2019-06-20T10:25:55.658Z,101090.50
2019-06-20T10:28:27.954Z,101090.39
2019-06-20T10:31:00.248Z,101101.48
2019-06-20T10:33:32.554Z,101107.84
2019-06-20T10:36:04.810Z,101109.65
2019-06-20T10:38:37.093Z,101110.45
2019-06-20T10:41:09.335Z,101108.13
2019-06-20T10:43:41.590Z,101110.80
2019-06-20T10:46:13.809Z,101104.32
2019-06-20T10:48:46.072Z,101101.87
2019-06-20T10:51:18.344Z,101108.58
2019-06-20T10:53:51.404Z,101106.38
2019-06-20T10:56:24.761Z,101101.77
2019-06-20T10:58:56.996Z,101113.58
2019-06-20T11:01:29.215Z,101111.89
2019-06-20T11:04:01.480Z,101112.13
2019-06-20T11:06:34.768Z,101117.09
2019-06-20T11:09:06.860Z,101122.64
2019-06-20T11:11:40.142Z,101125.03
2019-06-20T11:14:13.075Z,101114.95
2019-06-20T11:16:45.297Z,101124.74
2019-06-20T11:19:18.689Z,101123.92
2019-06-20T11:21:50.918Z,101128.27
2019-06-20T11:24:23.393Z,101120.92
2019-06-20T11:26:55.667Z,101125.92
2019-06-20T11:29:28.421Z,101132.11
2019-06-20T11:32:00.709Z,101136.38
2019-06-20T11:34:33.019Z,101136.38
2019-06-20T11:37:05.332Z,101143.86
2019-06-20T11:39:38.919Z,101141.31
2019-06-20T11:42:11.400Z,101139.47
2019-06-20T11:44:43.673Z,101145.89
2019-06-20T11:47:15.916Z,101140.05
2019-06-20T11:49:48.179Z,101139.70
2019-06-20T11:52:20.368Z,101150.39
2019-06-20T11:54:52.682Z,101150.39
2019-06-20T11:57:24.827Z,101155.21
2019-06-20T11:59:57.087Z,101160.11
2019-06-20T12:02:29.523Z,101165.52
2019-06-20T12:05:01.746Z,101164.17
2019-06-20T12:07:33.968Z,101169.69
2019-06-20T12:10:06.184Z,101165.66
2019-06-20T12:12:39.595Z,101161.03
2019-06-20T12:15:12.358Z,101161.74
2019-06-20T12:17:45.328Z,101169.48
2019-06-20T12:20:19.302Z,101176.30
2019-06-20T12:22:51.971Z,101176.16
2019-06-20T12:25:24.206Z,101188.16
2019-06-20T12:27:57.032Z,101181.33
2019-06-20T12:30:29.827Z,101183.16
2019-06-20T12:33:02.604Z,101191.33
2019-06-20T12:35:35.440Z,101195.27
2019-06-20T12:38:08.216Z,101195.66
2019-06-20T12:40:42.426Z,101198.88
2019-06-20T12:43:15.773Z,101196.14
2019-06-20T12:45:49.532Z,101189.20
2019-06-20T12:48:22.442Z,101191.48
2019-06-20T12:50:55.471Z,101191.33
2019-06-20T12:53:27.734Z,101192.56
2019-06-20T12:55:59.910Z,101186.56
2019-06-20T12:58:32.204Z,101191.08
2019-06-20T13:01:04.463Z,101192.98
2019-06-20T13:03:38.591Z,101195.52
2019-06-20T13:06:10.852Z,101195.50
2019-06-20T13:08:43.650Z,101197.30
2019-06-20T13:11:16.478Z,101207.78
2019-06-20T13:13:49.213Z,101213.70
2019-06-20T13:16:21.593Z,101214.38
2019-06-20T13:18:54.799Z,101218.62
2019-06-20T13:21:27.257Z,101214.13
2019-06-20T13:23:59.905Z,101217.20
2019-06-20T13:26:32.744Z,101223.34
2019-06-20T13:29:05.552Z,101245.89
2019-06-20T13:31:56.237Z,101229.84
2019-06-20T13:34:12.965Z,101242.48
2019-06-20T13:36:47.011Z,101234.03
2019-06-20T13:39:20.085Z,101235.56
2019-06-20T13:41:53.222Z,101233.95
2019-06-20T13:44:26.038Z,101234.30
2019-06-20T13:46:58.876Z,101256.95
2019-06-20T13:49:31.977Z,101239.04
2019-06-20T13:52:04.822Z,101253.22
2019-06-20T13:54:39.665Z,101252.28
2019-06-20T13:57:12.156Z,101251.73
2019-06-20T13:59:45.702Z,101257.52
2019-06-20T14:02:18.803Z,101253.34
2019-06-20T14:04:51.560Z,101259.59
2019-06-20T14:07:24.406Z,101259.59
2019-06-20T14:09:57.201Z,101251.63
2019-06-20T14:12:30.099Z,101244.23
2019-06-20T14:15:02.902Z,101241.42
2019-06-20T14:17:35.719Z,101244.67
2019-06-20T14:20:08.527Z,101255.98
2019-06-20T14:22:41.433Z,101244.38
2019-06-20T14:25:14.711Z,101247.44
2019-06-20T14:27:48.734Z,101245.30
2019-06-20T14:30:20.889Z,101248.87
2019-06-20T14:32:54.554Z,101253.23
2019-06-20T14:35:28.165Z,101253.21
2019-06-20T14:38:00.388Z,101249.97
2019-06-20T14:40:32.631Z,101248.48
2019-06-20T14:43:04.867Z,101250.97
2019-06-20T14:45:38.100Z,101244.94
2019-06-20T14:48:10.475Z,101249.94
2019-06-20T14:50:46.443Z,101247.10
2019-06-20T14:53:18.959Z,101243.05
2019-06-20T14:55:51.712Z,101252.55
2019-06-20T14:58:24.238Z,101252.98
2019-06-20T15:00:56.487Z,101253.63
2019-06-20T15:03:28.727Z,101251.09
2019-06-20T15:06:02.060Z,101251.41
2019-06-20T15:08:34.377Z,101256.78
2019-06-20T15:11:06.643Z,101255.78
2019-06-20T15:13:38.847Z,101256.12
2019-06-20T15:16:11.102Z,101254.03
2019-06-20T15:18:46.391Z,101257.48
2019-06-20T15:21:17.277Z,101261.77
2019-06-20T15:23:50.862Z,101262.61
2019-06-20T15:26:23.599Z,101269.73
2019-06-20T15:28:57.054Z,101272.21
2019-06-20T15:31:29.490Z,101274.55
2019-06-20T15:34:01.757Z,101268.22
2019-06-20T15:36:34.093Z,101261.69
2019-06-20T15:39:06.386Z,101261.06
2019-06-20T15:41:39.179Z,101269.91
2019-06-20T15:44:11.529Z,101261.47
2019-06-20T15:46:43.787Z,101267.17
2019-06-20T15:49:16.630Z,101266.05
2019-06-20T15:51:49.256Z,101260.03
2019-06-20T15:54:24.441Z,101257.41
2019-06-20T15:56:55.422Z,101257.41
2019-06-20T15:59:27.706Z,101254.14
2019-06-20T16:01:59.904Z,101255.98
2019-06-20T16:04:32.236Z,101260.70
2019-06-20T16:07:04.447Z,101259.48
2019-06-20T16:09:36.728Z,101264.58
2019-06-20T16:12:09.174Z,101268.89
2019-06-20T16:14:41.361Z,101279.48
2019-06-20T16:17:13.885Z,101271.91
2019-06-20T16:19:46.227Z,101286.70
2019-06-20T16:22:18.575Z,101286.73
2019-06-20T16:24:50.871Z,101291.88
2019-06-20T16:27:23.123Z,101284.16
2019-06-20T16:29:55.886Z,101293.69
2019-06-20T16:32:28.096Z,101293.05
2019-06-20T16:35:00.314Z,101291.02
2019-06-20T16:37:32.545Z,101287.10
2019-06-20T16:40:04.832Z,101295.45
2019-06-20T16:42:37.052Z,101287.48
2019-06-20T16:45:09.287Z,101297.21
2019-06-20T16:47:42.618Z,101290.90
2019-06-20T16:50:15.299Z,101297.91
2019-06-20T16:52:47.432Z,101295.75
2019-06-20T16:55:19.824Z,101298.34
2019-06-20T16:57:52.073Z,101301.80
2019-06-20T17:00:24.352Z,101299.18
2019-06-20T17:02:56.784Z,101327.08
2019-06-20T17:05:29.110Z,101311.27
2019-06-20T17:08:01.461Z,101306.73
2019-06-20T17:10:33.708Z,101315.59
2019-06-20T17:13:06.074Z,101318.75
2019-06-20T17:15:38.687Z,101317.96
2019-06-20T17:18:11.137Z,101323.86
2019-06-20T17:20:43.450Z,101327.05
2019-06-20T17:23:15.706Z,101325.74
2019-06-20T17:25:47.904Z,101332.05
2019-06-20T17:28:20.158Z,101325.88
2019-06-20T17:30:52.405Z,101333.73
2019-06-20T17:33:24.613Z,101333.33
2019-06-20T17:35:56.924Z,101337.70
2019-06-20T17:38:29.114Z,101332.90
2019-06-20T17:41:01.394Z,101332.92
2019-06-20T17:43:33.670Z,101332.07
2019-06-20T17:46:06.067Z,101334.37
2019-06-20T17:48:38.379Z,101337.03
2019-06-20T17:51:10.585Z,101332.19
2019-06-20T17:53:42.872Z,101346.33
2019-06-20T17:56:17.946Z,101341.45
2019-06-20T17:58:50.234Z,101345.45
2019-06-20T18:01:22.507Z,101352.94
2019-06-20T18:03:54.783Z,101349.88
2019-06-20T18:06:27.179Z,101355.16
2019-06-20T18:09:01.537Z,101353.38
2019-06-20T18:11:35.416Z,101359.09
2019-06-20T18:14:07.448Z,101363.86
2019-06-20T18:16:39.852Z,101366.09
2019-06-20T18:19:12.119Z,101361.88
2019-06-20T18:21:44.384Z,101361.88
2019-06-20T18:24:16.602Z,101376.77
2019-06-20T18:26:49.075Z,101376.77
2019-06-20T18:29:21.444Z,101367.77
2019-06-20T18:31:53.859Z,101377.62
2019-06-20T18:34:30.249Z,101373.66
2019-06-20T18:37:01.285Z,101378.14
2019-06-20T18:39:33.528Z,101375.51
2019-06-20T18:42:06.023Z,101377.73
2019-06-20T18:44:38.579Z,101382.59
2019-06-20T18:47:10.695Z,101391.86
2019-06-20T18:49:42.897Z,101383.94
2019-06-20T18:52:15.186Z,101394.08
2019-06-20T18:54:47.400Z,101389.23
2019-06-20T18:57:19.738Z,101400.70
2019-06-20T18:59:52.013Z,101399.39
2019-06-20T19:02:24.226Z,101401.58
2019-06-20T19:04:56.494Z,101407.73
2019-06-20T19:07:28.762Z,101408.64
2019-06-20T19:10:01.222Z,101411.66
2019-06-20T19:12:33.535Z,101409.89
2019-06-20T19:15:05.732Z,101409.39
2019-06-20T19:17:38.068Z,101416.37
2019-06-20T19:20:10.158Z,101417.22
2019-06-20T19:22:42.376Z,101414.13
2019-06-20T19:25:14.609Z,101423.78
2019-06-20T19:27:47.143Z,101421.05
2019-06-20T19:30:19.424Z,101428.05
2019-06-20T19:32:51.685Z,101442.06
2019-06-20T19:35:23.916Z,101440.70
2019-06-20T19:37:56.193Z,101444.17
2019-06-20T19:40:28.436Z,101445.86
2019-06-20T19:43:00.670Z,101449.33
2019-06-20T19:45:32.867Z,101450.59
2019-06-20T19:48:06.205Z,101447.86
2019-06-20T19:50:38.404Z,101448.68
2019-06-20T19:53:10.714Z,101453.45
2019-06-20T19:55:42.965Z,101460.45
2019-06-20T19:58:15.182Z,101463.44
2019-06-20T20:00:47.515Z,101459.44
2019-06-20T20:03:19.718Z,101465.14
2019-06-20T20:05:51.994Z,101465.92
2019-06-20T20:08:24.301Z,101468.04
2019-06-20T20:10:56.448Z,101477.61
2019-06-20T20:13:28.643Z,101476.63
2019-06-20T20:16:00.877Z,101481.84
2019-06-20T20:18:33.153Z,101483.06
2019-06-20T20:21:05.399Z,101479.05
2019-06-20T20:23:37.658Z,101473.25
2019-06-20T20:26:09.882Z,101475.81
2019-06-20T20:28:42.139Z,101475.75
2019-06-20T20:31:14.223Z,101481.80
2019-06-20T20:33:46.442Z,101484.33
2019-06-20T20:36:24.838Z,101485.53
2019-06-20T20:38:52.726Z,101481.97
2019-06-20T20:41:24.954Z,101487.63
2019-06-20T20:43:58.222Z,101490.22
2019-06-20T20:46:30.648Z,101494.09
2019-06-20T20:49:03.989Z,101491.42
2019-06-20T20:51:36.311Z,101493.16
2019-06-20T20:54:08.571Z,101497.03
2019-06-20T20:56:40.812Z,101497.41
2019-06-20T20:59:13.106Z,101495.59
2019-06-20T21:01:45.457Z,101495.52
2019-06-20T21:04:17.751Z,101491.95
2019-06-20T21:06:51.091Z,101502.89
2019-06-20T21:09:23.254Z,101498.44
2019-06-20T21:11:55.499Z,101504.97
2019-06-20T21:14:27.712Z,101505.78
2019-06-20T21:16:59.983Z,101506.20
2019-06-20T21:19:32.244Z,101504.05
2019-06-20T21:22:04.480Z,101508.83
2019-06-20T21:24:36.742Z,101508.73
2019-06-20T21:27:08.994Z,101503.77
2019-06-20T21:29:41.318Z,101504.53
2019-06-20T21:32:13.550Z,101509.27
2019-06-20T21:34:45.802Z,101504.34
2019-06-20T21:37:17.949Z,101502.97
2019-06-20T21:39:50.262Z,101506.87
2019-06-20T21:42:22.483Z,101511.19
2019-06-20T21:44:54.689Z,101511.99
2019-06-20T21:47:28.312Z,101514.98
2019-06-20T21:50:00.574Z,101516.20
2019-06-20T21:52:33.353Z,101520.16
2019-06-20T21:55:06.657Z,101516.16
2019-06-20T21:57:38.853Z,101520.02
2019-06-20T22:00:11.173Z,101524.00
2019-06-20T22:02:45.049Z,101523.11
2019-06-20T22:05:17.264Z,101526.15
2019-06-20T22:07:49.495Z,101526.20
2019-06-20T22:10:21.725Z,101532.31
2019-06-20T22:12:53.948Z,101533.09
2019-06-20T22:15:26.158Z,101531.27
2019-06-20T22:17:58.441Z,101533.45
2019-06-20T22:20:31.644Z,101534.72
2019-06-20T22:23:03.899Z,101537.25
2019-06-20T22:25:36.115Z,101538.94
2019-06-20T22:28:08.299Z,101548.08
2019-06-20T22:30:40.588Z,101542.75
2019-06-20T22:33:12.820Z,101546.17
2019-06-20T22:35:46.098Z,101549.17
2019-06-20T22:38:18.471Z,101550.89
2019-06-20T22:40:50.701Z,101543.38
2019-06-20T22:43:22.970Z,101544.64
2019-06-20T22:45:55.201Z,101541.53
2019-06-20T22:48:27.483Z,101546.74
2019-06-20T22:50:59.756Z,101543.68
2019-06-20T22:53:31.954Z,101543.15
2019-06-20T22:56:04.231Z,101545.77
2019-06-20T22:58:36.468Z,101543.88
2019-06-20T23:01:08.659Z,101545.56
2019-06-20T23:03:40.964Z,101542.52
2019-06-20T23:06:13.229Z,101542.92
2019-06-20T23:08:45.463Z,101538.50
2019-06-20T23:11:18.812Z,101540.66
2019-06-20T23:13:51.031Z,101541.56
2019-06-20T23:16:23.254Z,101543.66
2019-06-20T23:18:55.553Z,101545.80
2019-06-20T23:21:27.778Z,101547.16
2019-06-20T23:24:00.048Z,101547.53
2019-06-20T23:26:32.222Z,101551.41
2019-06-20T23:29:04.430Z,101546.93
2019-06-20T23:31:36.698Z,101552.17
2019-06-20T23:34:08.919Z,101550.38
2019-06-20T23:36:41.193Z,101547.71
2019-06-20T23:39:13.512Z,101550.44
2019-06-20T23:41:45.735Z,101551.27
2019-06-20T23:44:17.945Z,101555.69
2019-06-20T23:46:50.211Z,101557.00
2019-06-20T23:49:22.441Z,101546.91
2019-06-20T23:51:54.657Z,101556.48
2019-06-20T23:54:26.892Z,101553.41
2019-06-20T23:56:59.138Z,101554.27
2019-06-20T23:59:31.351Z,101552.95
